sensor_id;sensor_type;location;lat;lon;timestamp;pressure;altitude;pressure_sealevel;temperature;humidity
12897;BME280;6516;35.028;32.372;2023-03-16T00:00:56;99630.50;;;10.61;88.93
12897;BME280;6516;35.028;32.372;2023-03-16T00:03:23;99629.72;;;10.57;88.88
12897;BME280;6516;35.028;32.372;2023-03-16T00:05:54;99630.69;;;10.53;88.76
12897;BME280;6516;35.028;32.372;2023-03-16T00:08:22;99629.06;;;10.48;88.84
12897;BME280;6516;35.028;32.372;2023-03-16T00:10:51;99632.72;;;10.42;88.82
12897;BME280;6516;35.028;32.372;2023-03-16T00:13:21;99626.72;;;10.37;89.04
12897;BME280;6516;35.028;32.372;2023-03-16T00:15:50;99627.66;;;10.35;88.83
12897;BME280;6516;35.028;32.372;2023-03-16T00:18:21;99624.28;;;10.30;89.01
12897;BME280;6516;35.028;32.372;2023-03-16T00:20:52;99623.50;;;10.26;89.29
12897;BME280;6516;35.028;32.372;2023-03-16T00:23:21;99619.13;;;10.27;89.11
12897;BME280;6516;35.028;32.372;2023-03-16T00:25:52;99619.22;;;10.22;89.66
12897;BME280;6516;35.028;32.372;2023-03-16T00:28:20;99613.97;;;10.21;89.49
12897;BME280;6516;35.028;32.372;2023-03-16T00:30:48;99613.16;;;10.20;90.07
12897;BME280;6516;35.028;32.372;2023-03-16T00:33:16;99604.28;;;10.24;90.45
12897;BME280;6516;35.028;32.372;2023-03-16T00:35:47;99600.50;;;10.34;89.89
12897;BME280;6516;35.028;32.372;2023-03-16T00:38:16;99605.81;;;10.31;89.83
12897;BME280;6516;35.028;32.372;2023-03-16T00:40:44;99597.88;;;10.34;90.13
12897;BME280;6516;35.028;32.372;2023-03-16T00:43:15;99600.41;;;10.37;89.71
12897;BME280;6516;35.028;32.372;2023-03-16T00:45:43;99598.63;;;10.39;89.81
12897;BME280;6516;35.028;32.372;2023-03-16T00:48:11;99595.03;;;10.42;89.83
12897;BME280;6516;35.028;32.372;2023-03-16T00:50:39;99594.16;;;10.41;89.79
12897;BME280;6516;35.028;32.372;2023-03-16T00:53:09;99607.34;;;10.40;89.74
12897;BME280;6516;35.028;32.372;2023-03-16T00:55:37;99611.66;;;10.42;90.06
12897;BME280;6516;35.028;32.372;2023-03-16T00:58:04;99607.25;;;10.44;90.47
12897;BME280;6516;35.028;32.372;2023-03-16T01:00:32;99602.06;;;10.41;90.36
12897;BME280;6516;35.028;32.372;2023-03-16T01:03:00;99594.19;;;10.40;90.56
12897;BME280;6516;35.028;32.372;2023-03-16T01:05:28;99600.34;;;10.40;90.88
12897;BME280;6516;35.028;32.372;2023-03-16T01:07:58;99599.41;;;10.41;90.88
12897;BME280;6516;35.028;32.372;2023-03-16T01:10:28;99594.03;;;10.47;90.87
12897;BME280;6516;35.028;32.372;2023-03-16T01:12:56;99589.56;;;10.49;90.75
12897;BME280;6516;35.028;32.372;2023-03-16T01:15:24;99589.56;;;10.49;90.92
12897;BME280;6516;35.028;32.372;2023-03-16T01:17:52;99588.69;;;10.49;91.07
12897;BME280;6516;35.028;32.372;2023-03-16T01:20:20;99586.03;;;10.50;91.29
12897;BME280;6516;35.028;32.372;2023-03-16T01:22:48;99597.78;;;10.69;91.28
12897;BME280;6516;35.028;32.372;2023-03-16T01:25:16;99596.72;;;10.76;90.57
12897;BME280;6516;35.028;32.372;2023-03-16T01:27:46;99594.16;;;10.73;90.34
12897;BME280;6516;35.028;32.372;2023-03-16T01:30:14;99589.09;;;10.66;90.79
12897;BME280;6516;35.028;32.372;2023-03-16T01:32:42;99584.94;;;10.59;91.44
12897;BME280;6516;35.028;32.372;2023-03-16T01:35:12;99583.06;;;10.62;91.77
12897;BME280;6516;35.028;32.372;2023-03-16T01:37:40;99588.31;;;10.64;91.84
12897;BME280;6516;35.028;32.372;2023-03-16T01:40:09;99591.81;;;10.63;91.91
12897;BME280;6516;35.028;32.372;2023-03-16T01:42:45;99590.13;;;10.60;92.35
12897;BME280;6516;35.028;32.372;2023-03-16T01:48:42;99586.50;;;10.64;92.55
12897;BME280;6516;35.028;32.372;2023-03-16T01:51:15;99579.47;;;10.66;92.71
12897;BME280;6516;35.028;32.372;2023-03-16T01:53:48;99590.91;;;10.65;92.67
12897;BME280;6516;35.028;32.372;2023-03-16T01:56:22;99595.81;;;10.77;92.37
12897;BME280;6516;35.028;32.372;2023-03-16T01:58:56;99594.78;;;10.83;92.03
12897;BME280;6516;35.028;32.372;2023-03-16T02:01:26;99598.22;;;10.85;91.91
12897;BME280;6516;35.028;32.372;2023-03-16T02:03:59;99593.84;;;10.85;91.77
12897;BME280;6516;35.028;32.372;2023-03-16T02:06:31;99584.38;;;10.78;92.25
12897;BME280;6516;35.028;32.372;2023-03-16T02:09:01;99595.00;;;10.75;92.50
12897;BME280;6516;35.028;32.372;2023-03-16T02:11:30;99595.03;;;10.74;93.06
12897;BME280;6516;35.028;32.372;2023-03-16T02:14:03;99593.31;;;10.73;93.17
12897;BME280;6516;35.028;32.372;2023-03-16T02:16:35;99584.47;;;10.75;93.23
12897;BME280;6516;35.028;32.372;2023-03-16T02:19:08;99586.84;;;10.84;92.96
12897;BME280;6516;35.028;32.372;2023-03-16T02:21:44;99595.31;;;10.95;92.84
12897;BME280;6516;35.028;32.372;2023-03-16T02:24:14;99596.69;;;11.08;92.26
12897;BME280;6516;35.028;32.372;2023-03-16T02:26:46;99603.31;;;11.22;91.82
12897;BME280;6516;35.028;32.372;2023-03-16T02:29:28;99604.84;;;11.28;91.27
12897;BME280;6516;35.028;32.372;2023-03-16T02:32:20;99601.09;;;11.37;91.07
12897;BME280;6516;35.028;32.372;2023-03-16T02:34:49;99597.34;;;11.44;91.05
12897;BME280;6516;35.028;32.372;2023-03-16T02:37:17;99605.94;;;11.51;90.87
12897;BME280;6516;35.028;32.372;2023-03-16T02:39:46;99602.19;;;11.59;90.71
12897;BME280;6516;35.028;32.372;2023-03-16T02:42:16;99604.63;;;11.67;90.80
12897;BME280;6516;35.028;32.372;2023-03-16T02:44:48;99605.34;;;11.72;90.63
12897;BME280;6516;35.028;32.372;2023-03-16T02:47:26;99609.59;;;11.76;90.58
12897;BME280;6516;35.028;32.372;2023-03-16T02:49:57;99615.66;;;11.79;90.62
12897;BME280;6516;35.028;32.372;2023-03-16T02:52:26;99622.59;;;11.82;90.67
12897;BME280;6516;35.028;32.372;2023-03-16T02:54:54;99619.16;;;11.80;90.78
12897;BME280;6516;35.028;32.372;2023-03-16T02:57:22;99613.00;;;11.79;90.67
12897;BME280;6516;35.028;32.372;2023-03-16T02:59:49;99619.25;;;11.77;90.75
12897;BME280;6516;35.028;32.372;2023-03-16T03:02:17;99611.47;;;11.72;91.05
12897;BME280;6516;35.028;32.372;2023-03-16T03:04:47;99617.81;;;11.67;91.31
12897;BME280;6516;35.028;32.372;2023-03-16T03:07:14;99615.81;;;11.75;91.20
12897;BME280;6516;35.028;32.372;2023-03-16T03:09:42;99618.03;;;11.87;90.00
12897;BME280;6516;35.028;32.372;2023-03-16T03:12:11;99617.78;;;11.94;89.66
12897;BME280;6516;35.028;32.372;2023-03-16T03:14:39;99617.66;;;11.99;89.38
12897;BME280;6516;35.028;32.372;2023-03-16T03:17:09;99620.97;;;12.05;89.26
12897;BME280;6516;35.028;32.372;2023-03-16T03:19:38;99615.66;;;12.07;89.77
12897;BME280;6516;35.028;32.372;2023-03-16T03:22:07;99623.44;;;12.10;90.40
12897;BME280;6516;35.028;32.372;2023-03-16T03:24:35;99610.25;;;12.10;90.84
12897;BME280;6516;35.028;32.372;2023-03-16T03:27:03;99619.84;;;12.12;91.04
12897;BME280;6516;35.028;32.372;2023-03-16T03:29:31;99617.16;;;12.14;91.35
12897;BME280;6516;35.028;32.372;2023-03-16T03:32:00;99614.44;;;12.17;91.33
12897;BME280;6516;35.028;32.372;2023-03-16T03:34:29;99609.84;;;12.22;91.44
12897;BME280;6516;35.028;32.372;2023-03-16T03:36:57;99615.88;;;12.25;91.40
12897;BME280;6516;35.028;32.372;2023-03-16T03:39:27;99618.38;;;12.30;91.30
12897;BME280;6516;35.028;32.372;2023-03-16T03:41:54;99619.06;;;12.36;91.25
12897;BME280;6516;35.028;32.372;2023-03-16T03:44:23;99617.06;;;12.43;91.10
12897;BME280;6516;35.028;32.372;2023-03-16T03:46:51;99623.00;;;12.49;90.93
12897;BME280;6516;35.028;32.372;2023-03-16T03:49:19;99626.13;;;12.60;90.68
12897;BME280;6516;35.028;32.372;2023-03-16T03:51:47;99620.47;;;12.71;90.33
12897;BME280;6516;35.028;32.372;2023-03-16T03:54:14;99627.22;;;12.79;89.98
12897;BME280;6516;35.028;32.372;2023-03-16T03:56:44;99626.84;;;12.90;89.34
12897;BME280;6516;35.028;32.372;2023-03-16T03:59:11;99620.00;;;13.09;88.05
12897;BME280;6516;35.028;32.372;2023-03-16T04:01:39;99618.06;;;13.14;87.59
12897;BME280;6516;35.028;32.372;2023-03-16T04:04:07;99628.44;;;13.20;87.22
12897;BME280;6516;35.028;32.372;2023-03-16T04:06:35;99617.72;;;13.23;87.05
12897;BME280;6516;35.028;32.372;2023-03-16T04:09:03;99611.44;;;13.25;86.82
12897;BME280;6516;35.028;32.372;2023-03-16T04:11:31;99616.78;;;13.24;86.50
12897;BME280;6516;35.028;32.372;2023-03-16T04:14:00;99616.88;;;13.22;86.59
12897;BME280;6516;35.028;32.372;2023-03-16T04:16:28;99626.81;;;13.16;86.88
12897;BME280;6516;35.028;32.372;2023-03-16T04:18:56;99629.78;;;13.07;87.04
12897;BME280;6516;35.028;32.372;2023-03-16T04:21:24;99631.84;;;12.99;87.62
12897;BME280;6516;35.028;32.372;2023-03-16T04:23:52;99633.06;;;12.89;88.03
12897;BME280;6516;35.028;32.372;2023-03-16T04:26:20;99635.09;;;12.81;88.69
12897;BME280;6516;35.028;32.372;2023-03-16T04:28:50;99639.72;;;12.74;88.90
12897;BME280;6516;35.028;32.372;2023-03-16T04:31:20;99645.19;;;12.70;89.05
12897;BME280;6516;35.028;32.372;2023-03-16T04:33:47;99640.09;;;12.64;89.30
12897;BME280;6516;35.028;32.372;2023-03-16T04:36:15;99647.03;;;12.66;89.29
12897;BME280;6516;35.028;32.372;2023-03-16T04:38:43;99637.25;;;12.70;89.14
12897;BME280;6516;35.028;32.372;2023-03-16T04:41:11;99637.81;;;12.78;88.93
12897;BME280;6516;35.028;32.372;2023-03-16T04:43:38;99642.66;;;12.91;88.46
12897;BME280;6516;35.028;32.372;2023-03-16T04:46:07;99645.50;;;13.10;87.43
12897;BME280;6516;35.028;32.372;2023-03-16T04:48:37;99644.06;;;13.26;86.56
12897;BME280;6516;35.028;32.372;2023-03-16T04:51:05;99640.97;;;13.38;86.24
12897;BME280;6516;35.028;32.372;2023-03-16T04:53:33;99642.69;;;13.62;85.25
12897;BME280;6516;35.028;32.372;2023-03-16T04:56:01;99639.13;;;13.84;84.08
12897;BME280;6516;35.028;32.372;2023-03-16T04:58:29;99649.00;;;14.02;82.11
12897;BME280;6516;35.028;32.372;2023-03-16T05:00:57;99644.94;;;14.15;81.21
12897;BME280;6516;35.028;32.372;2023-03-16T05:03:25;99645.22;;;14.31;81.53
12897;BME280;6516;35.028;32.372;2023-03-16T05:05:54;99654.44;;;14.42;81.07
12897;BME280;6516;35.028;32.372;2023-03-16T05:08:22;99653.06;;;14.54;80.35
12897;BME280;6516;35.028;32.372;2023-03-16T05:10:49;99649.09;;;14.64;80.62
12897;BME280;6516;35.028;32.372;2023-03-16T05:13:17;99650.59;;;14.71;78.88
12897;BME280;6516;35.028;32.372;2023-03-16T05:15:45;99644.78;;;14.83;78.51
12897;BME280;6516;35.028;32.372;2023-03-16T05:18:13;99654.63;;;14.99;78.44
12897;BME280;6516;35.028;32.372;2023-03-16T05:20:41;99650.72;;;15.08;76.93
12897;BME280;6516;35.028;32.372;2023-03-16T05:23:11;99649.31;;;15.19;76.09
12897;BME280;6516;35.028;32.372;2023-03-16T05:25:39;99656.91;;;15.27;75.98
12897;BME280;6516;35.028;32.372;2023-03-16T05:28:07;99651.81;;;15.42;75.71
12897;BME280;6516;35.028;32.372;2023-03-16T05:30:34;99650.56;;;15.51;74.71
12897;BME280;6516;35.028;32.372;2023-03-16T05:33:02;99652.94;;;15.57;73.16
12897;BME280;6516;35.028;32.372;2023-03-16T05:35:30;99656.88;;;15.67;73.10
12897;BME280;6516;35.028;32.372;2023-03-16T05:37:58;99655.88;;;15.88;72.36
12897;BME280;6516;35.028;32.372;2023-03-16T05:40:27;99647.25;;;16.01;71.14
12897;BME280;6516;35.028;32.372;2023-03-16T05:42:56;99641.28;;;16.15;70.74
12897;BME280;6516;35.028;32.372;2023-03-16T05:45:25;99644.91;;;16.31;70.31
12897;BME280;6516;35.028;32.372;2023-03-16T05:47:53;99646.63;;;16.50;70.87
12897;BME280;6516;35.028;32.372;2023-03-16T05:50:21;99643.91;;;16.52;68.90
12897;BME280;6516;35.028;32.372;2023-03-16T05:52:49;99649.22;;;16.52;69.37
12897;BME280;6516;35.028;32.372;2023-03-16T05:55:17;99635.41;;;16.62;67.47
12897;BME280;6516;35.028;32.372;2023-03-16T05:57:46;99633.13;;;16.55;67.48
12897;BME280;6516;35.028;32.372;2023-03-16T06:00:15;99624.50;;;16.67;66.88
12897;BME280;6516;35.028;32.372;2023-03-16T06:02:46;99633.19;;;16.70;67.39
12897;BME280;6516;35.028;32.372;2023-03-16T06:05:16;99627.78;;;16.89;66.71
12897;BME280;6516;35.028;32.372;2023-03-16T06:07:46;99637.88;;;16.99;65.99
12897;BME280;6516;35.028;32.372;2023-03-16T06:10:15;99634.50;;;17.13;65.60
12897;BME280;6516;35.028;32.372;2023-03-16T06:12:43;99647.50;;;17.19;64.95
12897;BME280;6516;35.028;32.372;2023-03-16T06:15:12;99643.81;;;17.21;64.06
12897;BME280;6516;35.028;32.372;2023-03-16T06:17:40;99634.75;;;17.08;64.21
12897;BME280;6516;35.028;32.372;2023-03-16T06:20:10;99644.03;;;17.17;63.64
12897;BME280;6516;35.028;32.372;2023-03-16T06:22:40;99635.38;;;17.13;63.08
12897;BME280;6516;35.028;32.372;2023-03-16T06:25:10;99641.69;;;17.28;64.33
12897;BME280;6516;35.028;32.372;2023-03-16T06:27:41;99656.53;;;17.49;61.80
12897;BME280;6516;35.028;32.372;2023-03-16T06:30:12;99647.44;;;17.53;62.30
12897;BME280;6516;35.028;32.372;2023-03-16T06:32:40;99644.56;;;17.73;62.28
12897;BME280;6516;35.028;32.372;2023-03-16T06:35:10;99646.78;;;17.65;62.34
12897;BME280;6516;35.028;32.372;2023-03-16T06:37:38;99636.75;;;17.70;60.90
12897;BME280;6516;35.028;32.372;2023-03-16T06:40:07;99641.91;;;17.73;60.90
12897;BME280;6516;35.028;32.372;2023-03-16T06:42:36;99642.78;;;18.04;60.13
12897;BME280;6516;35.028;32.372;2023-03-16T06:45:05;99652.03;;;18.13;60.25
12897;BME280;6516;35.028;32.372;2023-03-16T06:47:35;99654.19;;;18.22;59.22
12897;BME280;6516;35.028;32.372;2023-03-16T06:50:03;99646.81;;;18.11;58.17
12897;BME280;6516;35.028;32.372;2023-03-16T06:52:33;99652.81;;;17.99;57.29
12897;BME280;6516;35.028;32.372;2023-03-16T06:55:01;99641.31;;;18.14;57.91
12897;BME280;6516;35.028;32.372;2023-03-16T06:57:29;99638.56;;;18.16;57.27
12897;BME280;6516;35.028;32.372;2023-03-16T06:59:56;99636.84;;;18.46;57.73
12897;BME280;6516;35.028;32.372;2023-03-16T07:02:24;99634.75;;;18.66;57.39
12897;BME280;6516;35.028;32.372;2023-03-16T07:04:53;99639.50;;;18.61;57.28
12897;BME280;6516;35.028;32.372;2023-03-16T07:07:21;99647.13;;;18.67;57.58
12897;BME280;6516;35.028;32.372;2023-03-16T07:09:49;99639.56;;;18.60;58.65
12897;BME280;6516;35.028;32.372;2023-03-16T07:12:17;99655.50;;;18.46;58.73
12897;BME280;6516;35.028;32.372;2023-03-16T07:14:44;99660.56;;;18.04;59.01
12897;BME280;6516;35.028;32.372;2023-03-16T07:17:12;99658.84;;;18.18;59.91
12897;BME280;6516;35.028;32.372;2023-03-16T07:19:40;99658.16;;;17.84;59.34
12897;BME280;6516;35.028;32.372;2023-03-16T07:22:09;99656.75;;;17.77;58.24
12897;BME280;6516;35.028;32.372;2023-03-16T07:24:37;99670.94;;;17.45;59.41
12897;BME280;6516;35.028;32.372;2023-03-16T07:27:06;99665.53;;;17.29;59.28
12897;BME280;6516;35.028;32.372;2023-03-16T07:29:34;99670.50;;;17.20;60.01
12897;BME280;6516;35.028;32.372;2023-03-16T07:32:05;99675.00;;;17.18;60.00
12897;BME280;6516;35.028;32.372;2023-03-16T07:34:33;99674.72;;;17.07;59.45
12897;BME280;6516;35.028;32.372;2023-03-16T07:37:00;99676.91;;;16.99;61.11
12897;BME280;6516;35.028;32.372;2023-03-16T07:39:30;99677.94;;;17.13;61.13
12897;BME280;6516;35.028;32.372;2023-03-16T07:41:57;99677.84;;;17.15;60.88
12897;BME280;6516;35.028;32.372;2023-03-16T07:44:26;99675.88;;;17.18;60.58
12897;BME280;6516;35.028;32.372;2023-03-16T07:46:54;99675.66;;;17.23;60.76
12897;BME280;6516;35.028;32.372;2023-03-16T07:49:21;99682.91;;;17.19;61.09
12897;BME280;6516;35.028;32.372;2023-03-16T07:51:49;99682.16;;;17.17;62.34
12897;BME280;6516;35.028;32.372;2023-03-16T07:54:17;99676.56;;;17.56;60.26
12897;BME280;6516;35.028;32.372;2023-03-16T07:56:46;99668.97;;;18.27;59.74
12897;BME280;6516;35.028;32.372;2023-03-16T07:59:14;99681.44;;;18.58;56.85
12897;BME280;6516;35.028;32.372;2023-03-16T08:01:42;99665.03;;;18.65;57.32
12897;BME280;6516;35.028;32.372;2023-03-16T08:04:10;99673.97;;;18.49;57.23
12897;BME280;6516;35.028;32.372;2023-03-16T08:06:38;99684.50;;;18.36;56.59
12897;BME280;6516;35.028;32.372;2023-03-16T08:09:07;99678.38;;;18.50;56.67
12897;BME280;6516;35.028;32.372;2023-03-16T08:11:34;99674.69;;;18.52;55.83
12897;BME280;6516;35.028;32.372;2023-03-16T08:14:04;99667.44;;;19.13;54.98
12897;BME280;6516;35.028;32.372;2023-03-16T08:16:31;99672.59;;;19.60;52.57
12897;BME280;6516;35.028;32.372;2023-03-16T08:18:59;99661.63;;;19.93;54.30
12897;BME280;6516;35.028;32.372;2023-03-16T08:21:28;99671.06;;;19.84;54.59
12897;BME280;6516;35.028;32.372;2023-03-16T08:23:56;99676.41;;;19.56;52.37
12897;BME280;6516;35.028;32.372;2023-03-16T08:26:23;99664.38;;;19.91;52.52
12897;BME280;6516;35.028;32.372;2023-03-16T08:28:52;99678.19;;;20.26;52.14
12897;BME280;6516;35.028;32.372;2023-03-16T08:31:21;99671.28;;;20.62;52.47
12897;BME280;6516;35.028;32.372;2023-03-16T08:33:50;99677.56;;;20.49;47.12
12897;BME280;6516;35.028;32.372;2023-03-16T08:36:18;99663.81;;;20.14;47.18
12897;BME280;6516;35.028;32.372;2023-03-16T08:38:46;99669.53;;;20.22;49.20
12897;BME280;6516;35.028;32.372;2023-03-16T08:41:14;99671.00;;;20.26;49.32
12897;BME280;6516;35.028;32.372;2023-03-16T08:43:42;99679.31;;;20.36;48.09
12897;BME280;6516;35.028;32.372;2023-03-16T08:46:11;99673.69;;;20.40;48.09
12897;BME280;6516;35.028;32.372;2023-03-16T08:48:41;99674.16;;;20.33;45.59
12897;BME280;6516;35.028;32.372;2023-03-16T08:51:09;99666.59;;;20.39;45.40
12897;BME280;6516;35.028;32.372;2023-03-16T08:53:37;99676.81;;;20.73;43.91
12897;BME280;6516;35.028;32.372;2023-03-16T08:56:06;99678.00;;;21.08;44.08
12897;BME280;6516;35.028;32.372;2023-03-16T08:58:36;99684.47;;;20.92;43.44
12897;BME280;6516;35.028;32.372;2023-03-16T09:01:05;99678.75;;;21.10;44.35
12897;BME280;6516;35.028;32.372;2023-03-16T09:03:34;99680.19;;;20.63;43.49
12897;BME280;6516;35.028;32.372;2023-03-16T09:06:05;99680.75;;;20.80;44.76
12897;BME280;6516;35.028;32.372;2023-03-16T09:08:35;99687.69;;;20.70;45.85
12897;BME280;6516;35.028;32.372;2023-03-16T09:11:06;99678.44;;;20.88;47.06
12897;BME280;6516;35.028;32.372;2023-03-16T09:13:36;99692.97;;;20.84;45.18
12897;BME280;6516;35.028;32.372;2023-03-16T09:16:05;99685.97;;;20.96;45.44
12897;BME280;6516;35.028;32.372;2023-03-16T09:18:37;99687.28;;;20.76;44.44
12897;BME280;6516;35.028;32.372;2023-03-16T09:21:08;99686.78;;;20.84;45.09
12897;BME280;6516;35.028;32.372;2023-03-16T09:23:37;99673.16;;;20.74;45.80
12897;BME280;6516;35.028;32.372;2023-03-16T09:26:06;99692.41;;;20.67;45.99
12897;BME280;6516;35.028;32.372;2023-03-16T09:28:35;99688.31;;;20.61;46.67
12897;BME280;6516;35.028;32.372;2023-03-16T09:31:05;99683.31;;;20.43;47.40
12897;BME280;6516;35.028;32.372;2023-03-16T09:33:34;99672.28;;;20.74;48.22
12897;BME280;6516;35.028;32.372;2023-03-16T09:36:02;99680.34;;;21.00;46.48
12897;BME280;6516;35.028;32.372;2023-03-16T09:38:32;99680.06;;;21.17;45.64
12897;BME280;6516;35.028;32.372;2023-03-16T09:41:02;99672.84;;;20.93;47.42
12897;BME280;6516;35.028;32.372;2023-03-16T09:43:54;99681.31;;;20.99;44.98
12897;BME280;6516;35.028;32.372;2023-03-16T09:46:31;99676.38;;;21.06;47.02
12897;BME280;6516;35.028;32.372;2023-03-16T09:49:03;99675.69;;;21.29;46.26
12897;BME280;6516;35.028;32.372;2023-03-16T09:51:37;99685.53;;;21.53;45.63
12897;BME280;6516;35.028;32.372;2023-03-16T09:54:20;99688.78;;;21.71;45.54
12897;BME280;6516;35.028;32.372;2023-03-16T09:56:51;99679.53;;;21.50;46.32
12897;BME280;6516;35.028;32.372;2023-03-16T09:59:21;99674.41;;;21.47;45.97
12897;BME280;6516;35.028;32.372;2023-03-16T10:02:02;99675.66;;;21.66;48.05
12897;BME280;6516;35.028;32.372;2023-03-16T10:04:41;99676.22;;;21.96;46.59
12897;BME280;6516;35.028;32.372;2023-03-16T10:07:24;99673.03;;;21.79;47.47
12897;BME280;6516;35.028;32.372;2023-03-16T10:10:20;99667.34;;;21.83;46.98
12897;BME280;6516;35.028;32.372;2023-03-16T10:12:59;99667.25;;;21.72;47.83
12897;BME280;6516;35.028;32.372;2023-03-16T10:15:30;99665.69;;;21.31;47.76
12897;BME280;6516;35.028;32.372;2023-03-16T10:18:05;99666.97;;;21.25;47.94
12897;BME280;6516;35.028;32.372;2023-03-16T10:20:37;99658.31;;;21.34;49.03
12897;BME280;6516;35.028;32.372;2023-03-16T10:23:17;99646.63;;;21.35;47.29
12897;BME280;6516;35.028;32.372;2023-03-16T10:25:51;99651.78;;;21.38;47.54
12897;BME280;6516;35.028;32.372;2023-03-16T10:28:21;99647.47;;;21.48;47.35
12897;BME280;6516;35.028;32.372;2023-03-16T10:30:53;99627.78;;;21.62;46.87
12897;BME280;6516;35.028;32.372;2023-03-16T10:33:24;99632.06;;;21.64;47.85
12897;BME280;6516;35.028;32.372;2023-03-16T10:35:59;99645.56;;;21.75;47.68
12897;BME280;6516;35.028;32.372;2023-03-16T10:38:33;99651.78;;;21.88;47.78
12897;BME280;6516;35.028;32.372;2023-03-16T10:41:23;99632.34;;;21.97;46.75
12897;BME280;6516;35.028;32.372;2023-03-16T10:43:55;99630.00;;;21.93;45.71
12897;BME280;6516;35.028;32.372;2023-03-16T10:46:27;99634.34;;;22.06;46.31
12897;BME280;6516;35.028;32.372;2023-03-16T10:49:02;99643.84;;;21.99;45.10
12897;BME280;6516;35.028;32.372;2023-03-16T10:51:31;99639.25;;;22.25;46.95
12897;BME280;6516;35.028;32.372;2023-03-16T10:54:07;99639.66;;;21.58;48.41
12897;BME280;6516;35.028;32.372;2023-03-16T10:56:42;99653.22;;;20.92;49.76
12897;BME280;6516;35.028;32.372;2023-03-16T10:59:15;99635.91;;;21.10;49.12
12897;BME280;6516;35.028;32.372;2023-03-16T11:01:54;99628.84;;;21.09;49.31
12897;BME280;6516;35.028;32.372;2023-03-16T11:04:23;99632.13;;;20.61;51.76
12897;BME280;6516;35.028;32.372;2023-03-16T11:06:53;99639.81;;;20.27;53.32
12897;BME280;6516;35.028;32.372;2023-03-16T11:09:24;99632.09;;;20.08;53.94
12897;BME280;6516;35.028;32.372;2023-03-16T11:11:54;99632.03;;;20.36;53.98
12897;BME280;6516;35.028;32.372;2023-03-16T11:14:25;99626.25;;;20.69;51.35
12897;BME280;6516;35.028;32.372;2023-03-16T11:16:59;99617.31;;;20.56;51.91
12897;BME280;6516;35.028;32.372;2023-03-16T11:19:36;99629.00;;;20.28;51.20
12897;BME280;6516;35.028;32.372;2023-03-16T11:22:10;99631.97;;;20.24;51.81
12897;BME280;6516;35.028;32.372;2023-03-16T11:24:45;99622.81;;;20.54;52.20
12897;BME280;6516;35.028;32.372;2023-03-16T11:27:22;99625.81;;;20.62;52.29
12897;BME280;6516;35.028;32.372;2023-03-16T11:30:03;99613.72;;;20.96;51.92
12897;BME280;6516;35.028;32.372;2023-03-16T11:32:37;99616.44;;;21.08;52.18
12897;BME280;6516;35.028;32.372;2023-03-16T11:35:14;99612.44;;;21.01;52.43
12897;BME280;6516;35.028;32.372;2023-03-16T11:37:59;99601.19;;;21.21;50.77
12897;BME280;6516;35.028;32.372;2023-03-16T11:40:41;99609.69;;;20.76;52.99
12897;BME280;6516;35.028;32.372;2023-03-16T11:43:39;99613.31;;;21.02;52.71
12897;BME280;6516;35.028;32.372;2023-03-16T11:46:19;99619.84;;;21.35;50.66
12897;BME280;6516;35.028;32.372;2023-03-16T11:48:56;99618.81;;;21.38;50.21
12897;BME280;6516;35.028;32.372;2023-03-16T11:51:40;99605.06;;;21.42;49.34
12897;BME280;6516;35.028;32.372;2023-03-16T11:54:21;99611.50;;;21.40;50.80
12897;BME280;6516;35.028;32.372;2023-03-16T11:57:02;99609.03;;;21.74;50.32
12897;BME280;6516;35.028;32.372;2023-03-16T11:59:57;99604.97;;;21.44;51.02
12897;BME280;6516;35.028;32.372;2023-03-16T12:02:39;99594.53;;;21.64;50.92
12897;BME280;6516;35.028;32.372;2023-03-16T12:05:40;99594.78;;;21.49;50.14
12897;BME280;6516;35.028;32.372;2023-03-16T12:08:29;99601.84;;;21.37;52.23
12897;BME280;6516;35.028;32.372;2023-03-16T12:11:04;99601.28;;;21.82;51.53
12897;BME280;6516;35.028;32.372;2023-03-16T12:13:51;99609.75;;;21.89;50.27
12897;BME280;6516;35.028;32.372;2023-03-16T12:16:29;99598.81;;;21.79;50.30
12897;BME280;6516;35.028;32.372;2023-03-16T12:19:02;99614.69;;;21.57;51.02
12897;BME280;6516;35.028;32.372;2023-03-16T12:21:37;99625.09;;;21.37;51.02
12897;BME280;6516;35.028;32.372;2023-03-16T12:24:12;99628.94;;;21.08;52.19
12897;BME280;6516;35.028;32.372;2023-03-16T12:26:42;99625.81;;;20.62;53.32
12897;BME280;6516;35.028;32.372;2023-03-16T12:29:18;99628.22;;;20.40;55.29
12897;BME280;6516;35.028;32.372;2023-03-16T12:31:58;99627.13;;;20.02;55.56
12897;BME280;6516;35.028;32.372;2023-03-16T12:34:39;99629.66;;;19.77;56.38
12897;BME280;6516;35.028;32.372;2023-03-16T12:37:29;99624.44;;;19.62;55.92
12897;BME280;6516;35.028;32.372;2023-03-16T12:40:23;99625.84;;;19.67;56.57
12897;BME280;6516;35.028;32.372;2023-03-16T12:43:11;99617.06;;;19.65;56.94
12897;BME280;6516;35.028;32.372;2023-03-16T12:46:02;99610.75;;;19.80;57.13
12897;BME280;6516;35.028;32.372;2023-03-16T12:48:38;99606.06;;;20.38;55.87
12897;BME280;6516;35.028;32.372;2023-03-16T12:51:08;99599.81;;;20.64;53.69
12897;BME280;6516;35.028;32.372;2023-03-16T12:53:44;99592.19;;;20.97;52.75
12897;BME280;6516;35.028;32.372;2023-03-16T12:56:15;99589.22;;;21.27;52.31
12897;BME280;6516;35.028;32.372;2023-03-16T12:58:46;99597.34;;;21.00;52.42
12897;BME280;6516;35.028;32.372;2023-03-16T13:01:16;99602.28;;;21.06;52.03
12897;BME280;6516;35.028;32.372;2023-03-16T13:03:49;99590.28;;;20.99;52.18
12897;BME280;6516;35.028;32.372;2023-03-16T13:06:31;99589.44;;;21.11;51.69
12897;BME280;6516;35.028;32.372;2023-03-16T13:09:00;99589.41;;;21.24;51.09
12897;BME280;6516;35.028;32.372;2023-03-16T13:11:41;99585.03;;;21.23;49.82
12897;BME280;6516;35.028;32.372;2023-03-16T13:14:27;99583.66;;;21.17;50.20
12897;BME280;6516;35.028;32.372;2023-03-16T13:17:09;99587.88;;;20.82;48.46
12897;BME280;6516;35.028;32.372;2023-03-16T13:20:22;99585.72;;;20.75;50.58
12897;BME280;6516;35.028;32.372;2023-03-16T13:23:07;99587.50;;;20.62;52.06
12897;BME280;6516;35.028;32.372;2023-03-16T13:25:59;99595.31;;;20.26;52.27